Time;durP1;ratioP1;P1;durP2;ratioP2;P2;SDS_P1;SDS_P2;PMS_P1;PMS_P2;Temp;Humidity;BMP_temperature;BMP_pressure;BME280_temperature;BME280_humidity;BME280_pressure;Samples;Min_cycle;Max_cycle;Signal;HPM_P1;HPM_P2
2022/06/18 00:01:33;;;;;;;1.23;1.03;;;15.20;99.90;;;;;;4959617;28;20557;-85
2022/06/18 00:04:01;;;;;;;0.70;0.70;;;15.20;99.90;;;;;;4959696;28;20476;-85
2022/06/18 00:06:29;;;;;;;1.23;1.10;;;15.20;99.90;;;;;;4961118;28;20468;-85
2022/06/18 00:08:56;;;;;;;1.60;1.43;;;15.10;99.90;;;;;;4958193;28;20909;-87
2022/06/18 00:14:09;;;;;;;1.17;1.10;;;14.90;99.90;;;;;;4960288;28;20459;-85
2022/06/18 00:16:38;;;;;;;0.93;0.93;;;15.00;99.90;;;;;;4961085;28;20517;-86
2022/06/18 00:19:05;;;;;;;1.30;0.90;;;14.90;99.90;;;;;;4961860;28;20791;-86
2022/06/18 00:21:32;;;;;;;0.87;0.80;;;14.90;99.90;;;;;;4961378;28;20525;-85
2022/06/18 00:23:59;;;;;;;0.90;0.90;;;14.80;99.90;;;;;;4959365;28;20476;-85
2022/06/18 00:26:26;;;;;;;1.33;1.23;;;14.90;99.90;;;;;;4965094;28;20855;-86
2022/06/18 00:28:53;;;;;;;0.90;0.90;;;14.80;99.90;;;;;;4978239;28;20482;-86
2022/06/18 00:31:20;;;;;;;1.07;1.00;;;14.90;99.90;;;;;;4974541;28;20473;-86
2022/06/18 00:33:49;;;;;;;1.70;1.60;;;14.90;99.90;;;;;;4969023;28;20898;-86
2022/06/18 00:36:18;;;;;;;1.40;1.30;;;15.10;99.90;;;;;;4965268;28;20473;-84
2022/06/18 00:38:48;;;;;;;3.50;2.40;;;15.20;99.90;;;;;;4965926;28;20491;-85
2022/06/18 00:41:19;;;;;;;1.47;1.37;;;15.20;99.90;;;;;;4966357;28;20455;-87
2022/06/18 00:43:51;;;;;;;1.60;1.43;;;15.10;99.90;;;;;;4966695;28;20460;-86
2022/06/18 00:46:23;;;;;;;1.87;1.37;;;15.00;99.90;;;;;;4965159;28;20525;-85
2022/06/18 00:49:00;;;;;;;1.50;1.40;;;14.90;99.90;;;;;;4963009;28;20484;-85
2022/06/18 00:51:31;;;;;;;1.10;1.00;;;14.90;99.90;;;;;;4961959;28;20471;-86
2022/06/18 00:54:06;;;;;;;1.23;1.13;;;14.80;99.90;;;;;;4959571;28;20460;-87
2022/06/18 00:56:38;;;;;;;1.97;1.33;;;14.70;99.90;;;;;;4960989;28;20458;-88
2022/06/18 00:59:10;;;;;;;0.90;0.90;;;14.70;99.90;;;;;;4964827;28;20495;-87
2022/06/18 01:01:41;;;;;;;1.30;1.13;;;14.60;99.90;;;;;;4964224;28;20464;-87
2022/06/18 01:04:24;;;;;;;2.93;0.93;;;14.70;99.90;;;;;;4960049;28;20476;-87
2022/06/18 01:07:02;;;;;;;1.23;1.13;;;14.70;99.90;;;;;;4960369;28;21022;-86
2022/06/18 01:09:30;;;;;;;1.03;0.80;;;14.70;99.90;;;;;;4963317;28;20487;-85
2022/06/18 01:11:58;;;;;;;2.20;1.43;;;14.60;99.90;;;;;;4961405;28;20471;-86
2022/06/18 01:14:27;;;;;;;1.63;1.20;;;14.60;99.90;;;;;;4962233;28;20511;-86
2022/06/18 01:16:57;;;;;;;1.70;1.30;;;14.60;99.90;;;;;;4964511;28;20458;-86
2022/06/18 01:19:31;;;;;;;1.87;1.37;;;14.50;99.90;;;;;;4963462;28;20891;-86
2022/06/18 01:22:07;;;;;;;0.90;0.90;;;14.50;99.90;;;;;;4962939;28;20463;-85
2022/06/18 01:24:40;;;;;;;2.00;0.97;;;14.60;99.90;;;;;;4959480;28;20546;-86
2022/06/18 01:27:09;;;;;;;1.77;1.67;;;14.60;99.90;;;;;;4959398;28;20480;-86
2022/06/18 01:29:37;;;;;;;1.37;0.90;;;14.50;99.90;;;;;;4961714;28;20467;-86
2022/06/18 01:32:07;;;;;;;2.00;1.40;;;14.60;99.90;;;;;;4964130;28;20858;-88
2022/06/18 01:34:35;;;;;;;0.97;0.90;;;14.60;99.90;;;;;;4962464;28;20838;-87
2022/06/18 01:37:04;;;;;;;0.87;0.87;;;14.50;99.90;;;;;;4960108;28;21062;-85
2022/06/18 01:39:35;;;;;;;2.70;1.10;;;14.50;99.90;;;;;;4958568;28;21046;-85
2022/06/18 01:42:08;;;;;;;1.00;0.80;;;14.60;99.90;;;;;;4963161;28;20563;-86
2022/06/18 01:44:46;;;;;;;0.80;0.80;;;14.60;99.90;;;;;;4959750;28;20462;-86
2022/06/18 01:47:17;;;;;;;1.10;1.00;;;14.50;99.90;;;;;;4960176;28;20808;-87
2022/06/18 01:49:48;;;;;;;1.37;1.07;;;14.50;99.90;;;;;;4961086;28;21030;-86
2022/06/18 01:52:18;;;;;;;1.10;1.00;;;14.40;99.90;;;;;;4959682;28;20565;-88
2022/06/18 01:54:49;;;;;;;1.13;1.03;;;14.40;99.90;;;;;;4960415;28;20472;-84
2022/06/18 01:57:21;;;;;;;2.50;0.90;;;14.30;99.90;;;;;;4960684;28;20580;-85
2022/06/18 01:59:52;;;;;;;1.33;1.23;;;14.30;99.90;;;;;;4960604;28;20560;-85
2022/06/18 02:02:19;;;;;;;1.40;1.30;;;14.30;99.90;;;;;;4963433;28;20451;-87
2022/06/18 02:04:47;;;;;;;2.17;1.37;;;14.30;99.90;;;;;;4962018;28;20643;-86
2022/06/18 02:07:16;;;;;;;1.57;1.37;;;14.30;99.90;;;;;;4961416;28;20470;-85
2022/06/18 02:09:49;;;;;;;0.80;0.70;;;14.30;99.90;;;;;;4960405;28;20459;-87
2022/06/18 02:12:21;;;;;;;1.37;1.27;;;14.30;99.90;;;;;;4960141;28;20567;-85
2022/06/18 02:14:52;;;;;;;1.87;1.27;;;14.20;99.90;;;;;;4958621;28;20609;-86
2022/06/18 02:17:20;;;;;;;1.80;1.10;;;14.20;99.90;;;;;;4960355;28;20555;-86
2022/06/18 02:19:52;;;;;;;0.90;0.90;;;14.10;99.90;;;;;;4960419;28;20568;-87
2022/06/18 02:22:21;;;;;;;1.43;1.33;;;14.10;99.90;;;;;;4962388;28;20893;-85
2022/06/18 02:24:48;;;;;;;1.07;0.90;;;14.10;99.90;;;;;;4958274;28;20475;-86
2022/06/18 02:27:19;;;;;;;1.37;1.23;;;14.10;99.90;;;;;;4959778;28;20479;-86
2022/06/18 02:29:47;;;;;;;1.53;1.43;;;14.30;99.90;;;;;;4960408;28;20471;-86
2022/06/18 02:32:22;;;;;;;1.07;1.07;;;14.40;99.90;;;;;;4959935;28;20479;-86
2022/06/18 02:34:50;;;;;;;0.90;0.90;;;14.50;99.90;;;;;;4961783;28;21022;-86
2022/06/18 02:37:23;;;;;;;1.17;1.10;;;14.60;99.90;;;;;;4963316;28;20461;-88
2022/06/18 02:39:59;;;;;;;1.37;1.27;;;14.60;99.90;;;;;;4964039;28;20548;-87
2022/06/18 02:42:31;;;;;;;1.30;1.20;;;14.70;99.90;;;;;;4960282;28;20547;-87
2022/06/18 02:44:58;;;;;;;1.10;1.10;;;14.80;99.90;;;;;;4958529;28;20477;-86
2022/06/18 02:47:26;;;;;;;1.53;1.43;;;14.90;99.90;;;;;;4960262;28;21026;-85
2022/06/18 02:49:57;;;;;;;1.07;0.83;;;15.00;99.90;;;;;;4960169;28;20467;-85
2022/06/18 02:52:30;;;;;;;1.90;1.47;;;15.10;99.90;;;;;;4959965;28;20447;-85
2022/06/18 02:55:10;;;;;;;0.97;0.83;;;15.10;99.90;;;;;;4960791;28;20920;-86
2022/06/18 02:57:39;;;;;;;1.67;1.17;;;15.10;99.90;;;;;;4962230;28;20565;-86
2022/06/18 03:00:08;;;;;;;1.60;1.37;;;15.10;99.90;;;;;;4962437;28;20856;-85
2022/06/18 03:02:36;;;;;;;3.63;1.20;;;15.20;99.90;;;;;;4961187;28;20528;-85
2022/06/18 03:05:03;;;;;;;1.03;0.97;;;15.20;99.90;;;;;;4962600;28;20876;-87
2022/06/18 03:07:30;;;;;;;1.07;0.90;;;15.30;99.90;;;;;;4962586;28;20520;-85
2022/06/18 03:12:43;;;;;;;1.00;1.00;;;15.20;99.90;;;;;;4956752;28;20893;-86
2022/06/18 03:15:12;;;;;;;1.03;0.93;;;15.10;99.90;;;;;;4962038;28;20494;-85
2022/06/18 03:17:39;;;;;;;1.47;1.03;;;15.00;99.90;;;;;;4962207;28;20469;-88
2022/06/18 03:20:14;;;;;;;1.23;1.03;;;14.90;99.90;;;;;;4960290;28;20491;-85
2022/06/18 03:22:41;;;;;;;1.93;1.83;;;14.80;99.90;;;;;;4958849;28;21002;-87
2022/06/18 03:25:08;;;;;;;1.37;1.23;;;14.70;99.90;;;;;;4958743;28;20473;-87
2022/06/18 03:27:35;;;;;;;1.13;0.83;;;14.70;99.90;;;;;;4961065;28;20447;-86
2022/06/18 03:30:04;;;;;;;2.23;1.80;;;14.60;99.90;;;;;;4959685;28;20551;-86
2022/06/18 03:32:32;;;;;;;1.00;1.00;;;14.50;99.90;;;;;;4961723;28;20562;-87
2022/06/18 03:34:59;;;;;;;0.80;0.80;;;14.50;99.90;;;;;;4958596;28;20463;-85
2022/06/18 03:37:26;;;;;;;1.30;1.20;;;14.50;99.90;;;;;;4961315;28;20475;-86
2022/06/18 03:39:53;;;;;;;1.13;1.03;;;14.40;99.90;;;;;;4962545;28;20491;-86
2022/06/18 03:42:20;;;;;;;1.20;1.10;;;14.40;99.90;;;;;;4960075;28;20475;-86
2022/06/18 03:44:47;;;;;;;0.90;0.90;;;14.40;99.90;;;;;;4956697;28;20495;-85
2022/06/18 03:47:15;;;;;;;3.20;1.10;;;14.50;99.90;;;;;;4959934;28;20457;-86
2022/06/18 03:49:42;;;;;;;3.57;1.40;;;14.40;99.90;;;;;;4958591;28;20542;-85
2022/06/18 03:52:11;;;;;;;2.00;1.00;;;14.40;99.90;;;;;;4960206;28;20888;-86
2022/06/18 03:54:38;;;;;;;2.10;1.37;;;14.40;99.90;;;;;;4962880;28;20551;-88
2022/06/18 03:57:06;;;;;;;2.37;1.10;;;14.40;99.90;;;;;;4960158;28;21251;-86
2022/06/18 03:59:34;;;;;;;0.80;0.80;;;14.50;99.90;;;;;;4962145;28;21117;-86
2022/06/18 04:02:01;;;;;;;1.23;1.13;;;14.50;99.90;;;;;;4963464;28;20573;-88
2022/06/18 04:04:29;;;;;;;1.27;1.20;;;14.70;99.90;;;;;;4969150;28;20475;-85
2022/06/18 04:06:57;;;;;;;1.40;1.30;;;14.80;99.90;;;;;;4969820;28;20478;-86
2022/06/18 04:09:24;;;;;;;1.10;1.00;;;14.80;99.90;;;;;;4966596;28;20464;-86
2022/06/18 04:11:51;;;;;;;2.47;1.77;;;14.90;99.90;;;;;;4966761;28;20475;-86
2022/06/18 04:14:18;;;;;;;1.80;1.10;;;15.00;99.90;;;;;;4967529;28;20479;-86
2022/06/18 04:16:45;;;;;;;1.10;1.10;;;15.20;99.90;;;;;;4968418;28;20504;-87
2022/06/18 04:19:12;;;;;;;1.07;1.07;;;15.30;99.90;;;;;;4963385;28;20495;-86
2022/06/18 04:21:40;;;;;;;1.50;1.40;;;15.30;99.90;;;;;;4967511;28;20552;-86
2022/06/18 04:24:08;;;;;;;2.40;1.57;;;15.40;99.90;;;;;;4966865;28;20647;-87
2022/06/18 04:26:35;;;;;;;1.73;1.63;;;15.30;99.90;;;;;;4964245;28;20878;-86
2022/06/18 04:29:02;;;;;;;1.40;1.30;;;15.50;99.90;;;;;;4968786;28;20938;-86
2022/06/18 04:31:29;;;;;;;1.50;1.40;;;15.70;99.90;;;;;;4964278;28;20497;-84
2022/06/18 04:33:56;;;;;;;2.50;1.23;;;15.80;99.90;;;;;;4967234;28;20476;-83
2022/06/18 04:36:32;;;;;;;1.63;1.53;;;15.90;99.90;;;;;;4967447;28;20523;-85
2022/06/18 04:39:01;;;;;;;1.23;0.80;;;15.90;99.90;;;;;;4967191;28;20502;-85
2022/06/18 04:41:28;;;;;;;1.77;1.40;;;16.00;99.90;;;;;;4976766;28;20446;-86
2022/06/18 04:43:56;;;;;;;1.37;1.27;;;16.00;99.90;;;;;;4983768;28;20526;-86
2022/06/18 04:46:23;;;;;;;0.80;0.80;;;16.10;99.90;;;;;;4978570;28;20568;-89
2022/06/18 04:48:50;;;;;;;1.80;1.10;;;16.10;99.90;;;;;;4976097;28;20452;-86
2022/06/18 04:51:17;;;;;;;0.87;0.87;;;16.40;99.90;;;;;;4969486;28;20950;-87
2022/06/18 04:53:44;;;;;;;1.07;0.97;;;16.50;99.90;;;;;;4966147;28;20599;-88
2022/06/18 04:56:13;;;;;;;1.10;1.00;;;16.60;99.90;;;;;;4967261;28;20471;-89
2022/06/18 04:58:41;;;;;;;0.90;0.90;;;16.70;99.90;;;;;;4965474;28;20576;-87
2022/06/18 05:01:08;;;;;;;0.90;0.90;;;16.70;99.90;;;;;;4967035;28;20474;-88
2022/06/18 05:03:36;;;;;;;1.63;0.90;;;16.90;99.90;;;;;;4964018;28;20486;-86
2022/06/18 05:06:03;;;;;;;1.03;1.00;;;17.10;99.90;;;;;;4963655;28;20548;-86
2022/06/18 05:08:30;;;;;;;1.47;1.23;;;17.40;99.90;;;;;;4968631;28;21010;-85
2022/06/18 05:10:57;;;;;;;1.33;1.23;;;17.60;99.90;;;;;;4962459;28;20464;-85
2022/06/18 05:13:25;;;;;;;0.87;0.87;;;17.70;99.90;;;;;;4963958;28;20475;-86
2022/06/18 05:15:55;;;;;;;2.60;2.13;;;17.90;99.90;;;;;;4962458;28;20464;-86
2022/06/18 05:18:24;;;;;;;1.93;1.37;;;18.10;99.90;;;;;;4960975;28;20468;-86
2022/06/18 05:20:52;;;;;;;1.20;1.10;;;18.10;99.90;;;;;;4963318;28;20491;-87
2022/06/18 05:23:20;;;;;;;1.40;1.00;;;18.40;99.90;;;;;;4964011;28;20576;-85
2022/06/18 05:25:48;;;;;;;1.87;1.33;;;18.60;99.90;;;;;;4962618;28;20480;-85
2022/06/18 05:28:15;;;;;;;1.00;0.90;;;18.60;99.90;;;;;;4960699;28;20453;-86
2022/06/18 05:30:44;;;;;;;1.20;1.10;;;18.80;99.90;;;;;;4962418;28;20949;-87
2022/06/18 05:33:11;;;;;;;1.60;0.97;;;19.10;99.90;;;;;;4959584;28;20488;-85
2022/06/18 05:35:39;;;;;;;2.90;1.10;;;19.10;99.90;;;;;;4959257;28;20476;-86
2022/06/18 05:38:07;;;;;;;1.90;1.70;;;19.30;99.90;;;;;;4961351;28;20525;-87
2022/06/18 05:40:34;;;;;;;1.03;0.90;;;19.20;99.90;;;;;;4962474;28;20488;-85
2022/06/18 05:43:01;;;;;;;1.67;1.00;;;19.10;99.90;;;;;;4961937;28;20617;-85
2022/06/18 05:45:28;;;;;;;1.17;1.07;;;19.10;99.90;;;;;;4962441;28;20505;-86
2022/06/18 05:47:57;;;;;;;1.23;1.10;;;19.10;99.90;;;;;;4962980;28;20511;-85
2022/06/18 05:50:25;;;;;;;0.80;0.80;;;19.30;99.70;;;;;;4960378;28;21016;-86
2022/06/18 05:52:52;;;;;;;2.63;1.10;;;19.30;99.80;;;;;;4961391;28;20468;-88
2022/06/18 05:55:20;;;;;;;0.67;0.67;;;19.40;99.90;;;;;;4963161;28;20456;-86
2022/06/18 05:57:49;;;;;;;0.70;0.67;;;19.50;98.50;;;;;;4962397;28;20499;-86
2022/06/18 06:00:19;;;;;;;1.60;1.50;;;19.90;99.20;;;;;;4959906;28;20496;-86
2022/06/18 06:02:46;;;;;;;1.30;1.20;;;19.70;99.50;;;;;;4963234;28;20457;-87
2022/06/18 06:05:15;;;;;;;0.70;0.70;;;20.00;98.20;;;;;;4963449;28;20576;-85
2022/06/18 06:07:44;;;;;;;1.13;1.03;;;20.20;97.50;;;;;;4963639;28;20470;-86
2022/06/18 06:13:05;;;;;;;2.30;1.47;;;20.40;96.30;;;;;;4959556;28;20568;-86
2022/06/18 06:15:32;;;;;;;1.07;0.90;;;20.50;96.10;;;;;;4959273;28;20464;-86
2022/06/18 06:17:59;;;;;;;1.47;1.37;;;20.70;95.50;;;;;;4960525;28;20471;-88
2022/06/18 06:20:30;;;;;;;2.33;1.90;;;20.60;95.30;;;;;;4961261;28;20910;-86
2022/06/18 06:22:58;;;;;;;3.97;1.10;;;20.60;96.00;;;;;;4960587;28;20537;-88
2022/06/18 06:25:25;;;;;;;1.00;0.90;;;20.60;96.30;;;;;;4962363;28;20475;-85
2022/06/18 06:27:52;;;;;;;1.10;1.00;;;21.00;94.80;;;;;;4960243;28;20468;-86
2022/06/18 06:30:19;;;;;;;1.30;1.17;;;21.00;96.10;;;;;;4961039;28;20472;-88
2022/06/18 06:32:47;;;;;;;2.23;1.43;;;21.20;95.50;;;;;;4959565;28;21180;-88
2022/06/18 06:35:14;;;;;;;1.77;1.50;;;21.10;95.80;;;;;;4959896;28;20472;-86
2022/06/18 06:37:43;;;;;;;1.40;1.30;;;21.00;94.80;;;;;;4962780;28;20464;-85
2022/06/18 06:40:13;;;;;;;1.13;1.03;;;21.10;93.80;;;;;;4962001;28;20494;-87
2022/06/18 06:42:45;;;;;;;0.80;0.80;;;21.20;94.70;;;;;;4961214;28;20466;-86
2022/06/18 06:45:18;;;;;;;1.40;1.20;;;21.00;95.40;;;;;;4958960;28;20537;-87
2022/06/18 06:47:45;;;;;;;1.07;0.80;;;21.20;95.10;;;;;;4960831;28;21067;-86
2022/06/18 06:50:14;;;;;;;1.37;1.27;;;21.40;94.30;;;;;;4950927;28;20574;-85
2022/06/18 06:52:48;;;;;;;1.20;1.10;;;21.40;95.30;;;;;;4954308;28;20471;-88
2022/06/18 06:58:02;;;;;;;1.70;1.03;;;21.50;94.50;;;;;;4953265;28;21200;-86
2022/06/18 07:00:29;;;;;;;1.63;1.00;;;21.70;95.10;;;;;;4961099;28;20497;-86
2022/06/18 07:02:56;;;;;;;1.37;1.27;;;21.60;96.10;;;;;;4961359;28;20464;-86
2022/06/18 07:05:23;;;;;;;1.87;1.17;;;21.80;95.50;;;;;;4959545;28;20469;-86
2022/06/18 07:07:52;;;;;;;1.47;1.20;;;22.20;94.50;;;;;;4956177;28;20468;-87
2022/06/18 07:10:19;;;;;;;3.50;1.23;;;22.20;94.10;;;;;;4959287;28;20460;-88
2022/06/18 07:12:46;;;;;;;1.93;1.40;;;22.00;93.90;;;;;;4959938;28;20472;-86
2022/06/18 07:15:13;;;;;;;1.27;1.17;;;22.30;95.70;;;;;;4959897;28;20468;-89
2022/06/18 07:17:42;;;;;;;2.60;1.53;;;22.50;94.90;;;;;;4957462;28;20976;-86
2022/06/18 07:20:14;;;;;;;1.43;1.40;;;22.20;94.70;;;;;;4956462;28;20484;-86
2022/06/18 07:22:41;;;;;;;1.77;1.63;;;22.40;93.80;;;;;;4951544;28;21501;-87
2022/06/18 07:25:11;;;;;;;1.80;1.70;;;22.60;91.70;;;;;;4946564;28;20553;-86
2022/06/18 07:27:39;;;;;;;1.23;1.13;;;22.30;92.60;;;;;;4950622;28;20465;-87
2022/06/18 07:30:08;;;;;;;1.80;1.67;;;22.50;94.20;;;;;;4944788;28;20483;-89
2022/06/18 07:32:36;;;;;;;1.60;1.47;;;22.90;91.70;;;;;;4946648;28;20472;-88
2022/06/18 07:35:05;;;;;;;1.93;1.83;;;23.30;91.10;;;;;;4948255;28;20477;-87
2022/06/18 07:37:32;;;;;;;1.43;1.33;;;23.30;90.00;;;;;;4948396;28;21055;-87
2022/06/18 07:39:59;;;;;;;1.50;1.40;;;23.10;91.70;;;;;;4948456;28;20488;-86
2022/06/18 07:42:27;;;;;;;1.90;1.23;;;22.70;91.30;;;;;;4962038;28;20448;-89
2022/06/18 07:44:54;;;;;;;1.90;1.20;;;22.90;91.50;;;;;;4980145;28;20494;-87
2022/06/18 07:47:21;;;;;;;1.40;1.30;;;22.70;92.10;;;;;;4966715;28;21201;-86
2022/06/18 07:49:48;;;;;;;1.70;1.60;;;23.00;91.10;;;;;;4970807;28;20473;-86
2022/06/18 07:52:16;;;;;;;1.63;1.30;;;22.90;90.90;;;;;;4965648;28;20547;-87
2022/06/18 07:54:44;;;;;;;2.10;2.00;;;23.30;93.80;;;;;;4964143;28;20525;-87
2022/06/18 07:57:11;;;;;;;2.17;2.07;;;23.20;90.20;;;;;;4960052;28;20552;-87
2022/06/18 07:59:40;;;;;;;2.17;1.87;;;23.20;92.70;;;;;;4958228;28;20471;-87
2022/06/18 08:02:07;;;;;;;1.40;1.13;;;23.20;90.10;;;;;;4959585;28;20541;-87
2022/06/18 08:04:35;;;;;;;1.20;1.10;;;23.20;89.60;;;;;;4960681;28;20471;-87
2022/06/18 08:07:02;;;;;;;2.80;1.20;;;23.80;90.70;;;;;;4962077;28;20474;-87
2022/06/18 08:09:29;;;;;;;1.40;1.30;;;24.20;85.20;;;;;;4960304;28;20575;-87
2022/06/18 08:11:56;;;;;;;1.63;1.53;;;24.40;85.80;;;;;;4959418;28;20464;-87
2022/06/18 08:14:24;;;;;;;1.43;1.00;;;23.90;83.50;;;;;;4961493;28;20555;-87
2022/06/18 08:16:52;;;;;;;1.43;1.33;;;24.30;84.90;;;;;;4959760;28;20460;-87
2022/06/18 08:19:19;;;;;;;1.23;1.13;;;23.90;82.80;;;;;;4962366;28;20461;-87
2022/06/18 08:21:46;;;;;;;1.30;1.20;;;24.10;84.60;;;;;;4960171;28;21009;-87
2022/06/18 08:24:18;;;;;;;1.50;1.40;;;24.20;84.50;;;;;;4962535;28;20467;-87
2022/06/18 08:26:47;;;;;;;2.43;1.30;;;24.40;83.40;;;;;;4961495;28;20460;-87
2022/06/18 08:29:18;;;;;;;1.43;1.33;;;24.50;85.20;;;;;;4956970;28;20996;-88
2022/06/18 08:31:45;;;;;;;1.47;1.30;;;24.80;82.10;;;;;;4952342;28;20472;-88
2022/06/18 08:34:13;;;;;;;1.30;1.30;;;24.50;82.30;;;;;;4945087;28;20557;-87
2022/06/18 08:36:42;;;;;;;2.00;1.70;;;24.60;80.80;;;;;;4944445;28;20476;-87
2022/06/18 08:39:10;;;;;;;1.30;1.20;;;24.30;83.00;;;;;;4951474;28;20457;-88
2022/06/18 08:41:53;;;;;;;1.50;1.40;;;24.50;83.30;;;;;;4947719;28;20503;-88
2022/06/18 08:44:52;;;;;;;1.40;1.30;;;24.50;85.00;;;;;;4947875;28;20878;-87
2022/06/18 08:47:48;;;;;;;1.90;0.90;;;25.00;87.90;;;;;;4952988;28;20464;-88
2022/06/18 08:50:34;;;;;;;1.60;1.50;;;25.10;86.60;;;;;;4959635;28;20495;-88
2022/06/18 08:53:18;;;;;;;2.80;1.40;;;25.50;82.50;;;;;;4960949;28;20468;-88
2022/06/18 08:55:51;;;;;;;1.30;1.20;;;25.70;82.60;;;;;;4963183;28;20589;-88
2022/06/18 08:58:29;;;;;;;1.20;1.10;;;26.00;77.60;;;;;;4962566;28;20500;-90
2022/06/18 09:01:01;;;;;;;2.13;1.93;;;25.70;76.70;;;;;;4961487;28;20570;-88
2022/06/18 09:03:51;;;;;;;1.17;1.10;;;25.70;75.80;;;;;;4966115;28;20517;-88
2022/06/18 09:06:32;;;;;;;1.00;1.00;;;26.00;74.70;;;;;;4963406;28;20745;-86
2022/06/18 09:09:08;;;;;;;0.90;0.90;;;26.30;76.50;;;;;;4960007;28;20483;-88
2022/06/18 09:12:02;;;;;;;1.33;1.23;;;26.30;76.40;;;;;;4961572;28;20467;-88
2022/06/18 09:14:35;;;;;;;2.40;2.13;;;26.30;76.30;;;;;;4959481;28;20530;-88
2022/06/18 09:17:10;;;;;;;3.43;1.93;;;25.70;80.70;;;;;;4964993;28;20517;-90
2022/06/18 09:19:39;;;;;;;5.60;1.60;;;25.90;79.50;;;;;;4963188;28;20526;-88
2022/06/18 09:22:12;;;;;;;2.30;2.00;;;26.10;79.60;;;;;;4961232;28;20573;-88
2022/06/18 09:24:42;;;;;;;2.10;1.23;;;26.30;75.70;;;;;;4961874;28;20472;-88
2022/06/18 09:27:17;;;;;;;1.23;1.13;;;26.10;77.20;;;;;;4963846;28;20467;-88
2022/06/18 09:29:49;;;;;;;1.00;1.00;;;26.20;74.40;;;;;;4963399;28;20467;-89
2022/06/18 09:32:21;;;;;;;1.90;1.50;;;26.30;73.40;;;;;;4962892;28;20882;-87
2022/06/18 09:34:52;;;;;;;0.93;0.93;;;26.30;74.40;;;;;;4967676;28;20979;-88
2022/06/18 09:37:25;;;;;;;1.93;1.70;;;26.60;70.50;;;;;;4957081;28;21075;-88
2022/06/18 09:39:57;;;;;;;1.00;1.00;;;26.60;72.60;;;;;;4962779;28;20472;-88
2022/06/18 09:42:28;;;;;;;3.50;1.10;;;26.30;66.20;;;;;;4964529;28;20488;-88
2022/06/18 09:45:01;;;;;;;1.13;1.07;;;26.20;64.10;;;;;;4963234;28;20460;-88
2022/06/18 09:47:36;;;;;;;1.13;1.00;;;26.50;64.50;;;;;;4962803;28;20567;-88
2022/06/18 09:50:04;;;;;;;2.03;1.00;;;26.70;61.10;;;;;;4958760;28;20537;-88
2022/06/18 09:52:36;;;;;;;1.20;1.10;;;26.70;62.50;;;;;;4960251;28;20523;-88
2022/06/18 09:55:08;;;;;;;1.53;1.43;;;26.80;68.70;;;;;;4962873;28;20479;-88
2022/06/18 09:57:41;;;;;;;1.23;0.90;;;27.00;62.70;;;;;;4962063;28;21117;-88
2022/06/18 10:00:11;;;;;;;2.23;1.10;;;26.90;58.50;;;;;;4960000;28;20992;-89
2022/06/18 10:02:44;;;;;;;1.40;1.30;;;26.90;61.30;;;;;;4958935;28;20464;-89
2022/06/18 10:08:08;;;;;;;0.93;0.93;;;27.30;65.00;;;;;;4957402;28;20486;-88
2022/06/18 10:10:36;;;;;;;0.80;0.80;;;27.20;62.60;;;;;;4969472;28;20467;-88
2022/06/18 10:13:13;;;;;;;1.60;1.10;;;27.20;58.30;;;;;;4956685;28;20468;-90
2022/06/18 10:15:40;;;;;;;0.90;0.90;;;27.30;66.80;;;;;;4959173;28;20880;-88
2022/06/18 10:18:20;;;;;;;3.50;1.37;;;27.30;63.60;;;;;;4959745;28;21097;-89
2022/06/18 10:20:55;;;;;;;0.80;0.80;;;27.30;66.70;;;;;;4960837;28;21084;-88
2022/06/18 10:23:39;;;;;;;2.20;0.90;;;27.60;62.90;;;;;;4956336;28;21238;-89
2022/06/18 10:26:13;;;;;;;1.00;0.80;;;27.60;66.60;;;;;;4961545;28;20463;-91
2022/06/18 10:28:51;;;;;;;1.00;1.00;;;27.80;63.80;;;;;;4962278;28;20475;-89
2022/06/18 10:31:32;;;;;;;0.80;0.80;;;27.60;60.00;;;;;;4960920;28;20505;-89
2022/06/18 10:34:11;;;;;;;0.90;0.90;;;27.50;59.00;;;;;;4963702;28;20467;-89
2022/06/18 10:36:45;;;;;;;1.13;1.03;;;27.20;58.10;;;;;;4960021;28;20537;-88
2022/06/18 10:39:21;;;;;;;0.93;0.87;;;27.70;65.80;;;;;;4960163;28;20532;-88
2022/06/18 10:42:06;;;;;;;0.63;0.60;;;28.10;63.40;;;;;;4959922;28;20556;-89
2022/06/18 10:44:47;;;;;;;0.93;0.90;;;28.20;64.30;;;;;;4976792;28;20541;-89
2022/06/18 10:47:17;;;;;;;1.10;1.00;;;28.20;60.10;;;;;;4980926;28;20472;-89
2022/06/18 10:49:46;;;;;;;2.83;0.80;;;27.80;58.00;;;;;;4988541;28;20456;-88
2022/06/18 10:52:23;;;;;;;1.27;1.07;;;27.90;59.00;;;;;;4962566;28;20472;-90
2022/06/18 10:54:52;;;;;;;1.13;1.03;;;28.00;57.10;;;;;;4957069;28;20555;-89
2022/06/18 10:57:24;;;;;;;1.00;0.90;;;28.00;59.50;;;;;;4959664;28;21031;-89
2022/06/18 10:59:52;;;;;;;1.00;1.00;;;27.90;58.70;;;;;;4962303;28;20468;-88
2022/06/18 11:02:22;;;;;;;0.80;0.80;;;28.30;59.70;;;;;;4959917;28;20627;-88
2022/06/18 11:04:56;;;;;;;1.07;0.97;;;28.30;57.50;;;;;;4956077;28;20467;-87
2022/06/18 11:07:25;;;;;;;1.27;0.87;;;28.80;63.00;;;;;;4957328;28;20464;-87
2022/06/18 11:09:57;;;;;;;1.30;1.20;;;29.10;56.80;;;;;;4958572;28;20555;-90
2022/06/18 11:12:27;;;;;;;0.90;0.80;;;29.20;56.90;;;;;;4960527;28;20555;-87
2022/06/18 11:14:54;;;;;;;0.83;0.83;;;29.10;57.90;;;;;;4959885;28;20899;-88
2022/06/18 11:17:26;;;;;;;6.73;1.60;;;28.90;54.40;;;;;;4959337;28;20551;-87
2022/06/18 11:19:53;;;;;;;0.93;0.83;;;29.20;56.60;;;;;;4957766;28;20522;-87
2022/06/18 11:22:28;;;;;;;0.90;0.80;;;28.80;54.50;;;;;;4958764;28;20492;-87
2022/06/18 11:24:58;;;;;;;1.10;1.00;;;28.60;53.30;;;;;;4957782;28;20468;-87
2022/06/18 11:27:30;;;;;;;0.80;0.80;;;28.60;55.60;;;;;;4960820;28;20485;-88
2022/06/18 11:29:58;;;;;;;2.40;0.87;;;28.80;56.00;;;;;;4960837;28;20467;-87
2022/06/18 11:32:28;;;;;;;0.80;0.80;;;28.90;54.50;;;;;;4961098;28;20472;-86
2022/06/18 11:35:16;;;;;;;0.80;0.80;;;29.20;54.30;;;;;;4960040;28;20476;-89
2022/06/18 11:37:43;;;;;;;1.13;0.83;;;29.20;51.40;;;;;;4957928;28;20472;-89
2022/06/18 11:40:24;;;;;;;0.80;0.80;;;28.90;51.60;;;;;;4960434;28;20540;-89
2022/06/18 11:42:52;;;;;;;2.70;0.80;;;29.00;51.30;;;;;;4960255;28;20549;-86
2022/06/18 11:45:35;;;;;;;0.80;0.60;;;28.90;49.80;;;;;;4953470;28;20477;-87
2022/06/18 11:48:09;;;;;;;1.43;0.90;;;29.00;50.90;;;;;;4958622;28;20475;-87
2022/06/18 11:50:42;;;;;;;0.70;0.70;;;29.40;51.90;;;;;;4954427;28;20537;-87
2022/06/18 11:53:16;;;;;;;0.67;0.60;;;29.10;50.70;;;;;;4965693;28;20472;-87
2022/06/18 11:55:51;;;;;;;0.80;0.80;;;29.70;51.60;;;;;;4951759;28;20493;-88
2022/06/18 11:58:25;;;;;;;0.60;0.60;;;29.50;48.30;;;;;;4960219;28;20500;-88
2022/06/18 12:00:59;;;;;;;0.60;0.60;;;29.60;48.50;;;;;;4956917;28;20467;-88
2022/06/18 12:03:34;;;;;;;1.00;0.90;;;29.60;48.90;;;;;;4958356;28;20641;-89
2022/06/18 12:06:06;;;;;;;0.73;0.73;;;29.70;46.40;;;;;;4956827;28;20495;-90
2022/06/18 12:08:34;;;;;;;0.70;0.70;;;29.60;47.90;;;;;;4954296;28;21102;-89
2022/06/18 12:11:09;;;;;;;0.63;0.63;;;29.30;47.70;;;;;;4953054;28;20471;-89
2022/06/18 12:13:42;;;;;;;1.23;1.13;;;29.40;50.00;;;;;;4958055;28;20459;-87
2022/06/18 12:16:24;;;;;;;1.37;0.90;;;29.70;50.60;;;;;;4956373;28;20460;-88
2022/06/18 12:18:55;;;;;;;2.30;0.70;;;30.30;53.20;;;;;;4958842;28;20541;-89
2022/06/18 12:21:38;;;;;;;1.03;0.70;;;30.10;48.80;;;;;;4952993;28;20496;-88
2022/06/18 12:24:19;;;;;;;0.70;0.60;;;29.90;46.60;;;;;;4958095;28;20577;-92
2022/06/18 12:26:54;;;;;;;0.60;0.60;;;29.60;48.00;;;;;;4960467;28;20464;-88
2022/06/18 12:29:40;;;;;;;0.70;0.70;;;29.60;49.50;;;;;;4976016;28;20542;-89
2022/06/18 12:32:19;;;;;;;1.00;0.60;;;29.70;48.00;;;;;;4957044;28;21040;-88
2022/06/18 12:34:56;;;;;;;1.53;0.60;;;29.70;46.30;;;;;;4964452;28;20625;-88
2022/06/18 12:37:30;;;;;;;0.80;0.67;;;29.80;44.00;;;;;;4963140;28;20837;-90
2022/06/18 12:40:02;;;;;;;0.50;0.50;;;29.70;45.40;;;;;;4963340;28;20465;-88
2022/06/18 12:42:37;;;;;;;0.50;0.50;;;29.50;48.60;;;;;;4960242;28;20815;-88
2022/06/18 12:45:09;;;;;;;4.10;0.90;;;29.50;46.00;;;;;;4965919;28;21911;-88
2022/06/18 12:47:46;;;;;;;0.60;0.60;;;29.50;46.40;;;;;;4952510;28;20964;-88
2022/06/18 12:50:27;;;;;;;0.60;0.60;;;29.90;49.50;;;;;;4957026;28;20548;-88
2022/06/18 12:53:03;;;;;;;1.13;0.60;;;29.80;51.00;;;;;;4956953;28;20472;-88
2022/06/18 12:55:39;;;;;;;0.60;0.60;;;30.10;46.90;;;;;;4964230;28;21129;-90
2022/06/18 12:58:18;;;;;;;0.60;0.53;;;30.30;44.10;;;;;;4964015;28;20495;-89
2022/06/18 13:00:51;;;;;;;0.87;0.60;;;30.30;40.80;;;;;;4963125;28;20456;-89
2022/06/18 13:03:40;;;;;;;1.33;0.50;;;30.10;42.20;;;;;;4960773;28;20492;-88
2022/06/18 13:06:15;;;;;;;2.10;0.60;;;30.20;44.00;;;;;;4962373;28;20473;-89
2022/06/18 13:08:56;;;;;;;0.80;0.80;;;30.20;46.10;;;;;;4962786;28;20452;-90
2022/06/18 13:11:33;;;;;;;0.57;0.57;;;30.00;45.70;;;;;;4960108;28;21130;-88
2022/06/18 13:14:18;;;;;;;0.70;0.67;;;30.10;46.00;;;;;;4960330;28;20460;-87
2022/06/18 13:16:50;;;;;;;0.60;0.57;;;30.10;47.70;;;;;;4961620;28;20559;-86
2022/06/18 13:19:22;;;;;;;1.20;1.10;;;30.00;47.70;;;;;;4960938;28;20476;-88
2022/06/18 13:21:50;;;;;;;0.80;0.70;;;30.10;46.50;;;;;;4956011;28;20909;-87